createdAt,value
2019-02-26T00:00:14.410Z,98436.67
2019-02-26T00:01:26.183Z,98430.22
2019-02-26T00:02:38.191Z,98427.23
2019-02-26T00:03:49.296Z,98425.14
2019-02-26T00:04:58.544Z,98429.02
2019-02-26T00:06:07.061Z,98429.53
2019-02-26T00:07:18.263Z,98420.55
2019-02-26T00:08:31.700Z,98424.81
2019-02-26T00:09:41.335Z,98420.09
2019-02-26T00:10:50.306Z,98415.87
2019-02-26T00:11:59.776Z,98415.87
2019-02-26T00:13:10.631Z,98413.73
2019-02-26T00:14:20.248Z,98406.44
2019-02-26T00:15:33.384Z,98413.33
2019-02-26T00:16:42.413Z,98408.17
2019-02-26T00:17:53.008Z,98406.48
2019-02-26T00:19:03.146Z,98402.20
2019-02-26T00:20:12.775Z,98396.64
2019-02-26T00:21:24.428Z,98399.27
2019-02-26T00:22:34.378Z,98398.42
2019-02-26T00:23:46.662Z,98400.20
2019-02-26T00:24:54.720Z,98398.14
2019-02-26T00:26:05.721Z,98396.53
2019-02-26T00:27:15.144Z,98394.84
2019-02-26T00:28:26.301Z,98388.44
2019-02-26T00:29:35.886Z,98387.19
2019-02-26T00:30:43.866Z,98385.49
2019-02-26T00:31:55.444Z,98380.38
2019-02-26T00:33:03.504Z,98379.16
2019-02-26T00:34:16.853Z,98376.18
2019-02-26T00:35:27.671Z,98376.18
2019-02-26T00:36:38.176Z,98374.94
2019-02-26T00:37:47.035Z,98382.27
2019-02-26T00:38:56.043Z,98375.86
2019-02-26T00:40:05.483Z,98374.53
2019-02-26T00:41:14.244Z,98372.39
2019-02-26T00:42:26.356Z,98370.70
2019-02-26T00:43:35.039Z,98365.59
2019-02-26T00:44:43.802Z,98358.78
2019-02-26T00:45:53.406Z,98363.61
2019-02-26T00:47:03.910Z,98362.77
2019-02-26T00:48:12.235Z,98366.63
2019-02-26T00:49:23.688Z,98364.50
2019-02-26T00:50:33.152Z,98361.93
2019-02-26T00:51:44.371Z,98360.28
2019-02-26T00:52:52.750Z,98358.62
2019-02-26T00:54:01.982Z,98351.78
2019-02-26T00:55:13.403Z,98357.83
2019-02-26T00:56:22.822Z,98355.28
2019-02-26T00:57:33.540Z,98353.59
2019-02-26T00:58:44.497Z,98359.67
2019-02-26T00:59:55.138Z,98364.38
2019-02-26T01:01:03.850Z,98361.84
2019-02-26T01:02:13.407Z,98367.00
2019-02-26T01:03:22.137Z,98367.89
2019-02-26T01:04:33.504Z,98373.93
2019-02-26T01:05:43.151Z,98372.68
2019-02-26T01:06:56.751Z,98373.64
2019-02-26T01:08:10.505Z,98376.70
2019-02-26T01:09:15.710Z,98379.39
2019-02-26T01:10:24.707Z,98379.47
2019-02-26T01:11:33.447Z,98384.67
2019-02-26T01:12:42.863Z,98384.27
2019-02-26T01:13:51.210Z,98378.74
2019-02-26T01:15:04.661Z,98380.07
2019-02-26T01:16:14.284Z,98378.85
2019-02-26T01:17:22.970Z,98380.66
2019-02-26T01:18:30.736Z,98378.61
2019-02-26T01:19:42.983Z,98373.05
2019-02-26T01:20:56.792Z,98373.49
2019-02-26T01:22:06.108Z,98372.68
2019-02-26T01:23:13.973Z,98377.50
2019-02-26T01:24:23.526Z,98384.83
2019-02-26T01:25:32.754Z,98391.27
2019-02-26T01:26:42.684Z,98385.71
2019-02-26T01:27:53.232Z,98386.19
2019-02-26T01:29:01.838Z,98387.52
2019-02-26T01:30:12.390Z,98385.45
2019-02-26T01:31:24.723Z,98385.89
2019-02-26T01:32:34.125Z,98382.58
2019-02-26T01:33:43.639Z,98383.06
2019-02-26T01:34:51.421Z,98384.34
2019-02-26T01:36:00.287Z,98383.54
2019-02-26T01:37:10.334Z,98382.29
2019-02-26T01:38:21.275Z,98372.88
2019-02-26T01:39:29.315Z,98372.91
2019-02-26T01:40:41.539Z,98375.08
2019-02-26T01:41:51.185Z,98373.83
2019-02-26T01:43:02.570Z,98368.67
2019-02-26T01:44:10.012Z,98368.74
2019-02-26T01:45:21.755Z,98365.36
2019-02-26T01:46:32.889Z,98365.36
2019-02-26T01:47:45.273Z,98362.37
2019-02-26T01:48:55.058Z,98369.26
2019-02-26T01:50:04.637Z,98367.97
2019-02-26T01:51:17.022Z,98365.02
2019-02-26T01:52:26.423Z,98364.63
2019-02-26T01:53:35.308Z,98361.68
2019-02-26T01:54:47.532Z,98358.70
2019-02-26T01:55:56.241Z,98361.27
2019-02-26T01:57:04.074Z,98361.82
2019-02-26T01:58:16.600Z,98360.13
2019-02-26T01:59:24.979Z,98360.97
2019-02-26T02:00:38.663Z,98373.41
2019-02-26T02:01:46.516Z,98366.12
2019-02-26T02:02:57.138Z,98372.56
2019-02-26T02:04:08.746Z,98370.02
2019-02-26T02:05:21.422Z,98364.43
2019-02-26T02:06:32.119Z,98366.20
2019-02-26T02:07:39.901Z,98367.55
2019-02-26T02:08:50.475Z,98370.97
2019-02-26T02:10:00.607Z,98374.42
2019-02-26T02:11:12.050Z,98367.14
2019-02-26T02:12:19.815Z,98363.73
2019-02-26T02:13:30.673Z,98362.47
2019-02-26T02:14:38.920Z,98363.32
2019-02-26T02:15:47.734Z,98361.63
2019-02-26T02:16:59.032Z,98360.75
2019-02-26T02:18:07.722Z,98357.77
2019-02-26T02:19:20.061Z,98359.52
2019-02-26T02:20:27.401Z,98359.97
2019-02-26T02:21:39.668Z,98355.70
2019-02-26T02:22:50.247Z,98362.58
2019-02-26T02:23:58.849Z,98358.31
2019-02-26T02:25:08.663Z,98358.34
2019-02-26T02:26:19.974Z,98354.08
2019-02-26T02:27:31.048Z,98355.80
2019-02-26T02:28:40.226Z,98353.67
2019-02-26T02:29:51.254Z,98349.41
2019-02-26T02:31:00.783Z,98351.13
2019-02-26T02:32:08.593Z,98358.01
2019-02-26T02:33:24.245Z,98349.44
2019-02-26T02:34:33.049Z,98349.88
2019-02-26T02:35:43.332Z,98345.62
2019-02-26T02:36:51.060Z,98338.77
2019-02-26T02:38:00.097Z,98344.43
2019-02-26T02:39:13.015Z,98340.13
2019-02-26T02:40:21.461Z,98336.71
2019-02-26T02:41:30.137Z,98336.30
2019-02-26T02:42:40.233Z,98339.72
2019-02-26T02:43:50.203Z,98340.16
2019-02-26T02:44:59.800Z,98338.03
2019-02-26T02:46:07.580Z,98331.59
2019-02-26T02:47:16.859Z,98335.90
2019-02-26T02:48:24.667Z,98330.31
2019-02-26T02:49:38.249Z,98325.16
2019-02-26T02:50:44.915Z,98317.00
2019-02-26T02:51:58.862Z,98321.30
2019-02-26T02:53:06.989Z,98314.43
2019-02-26T02:54:18.570Z,98308.47
2019-02-26T02:55:26.855Z,98309.35
2019-02-26T02:56:39.883Z,98314.02
2019-02-26T02:57:52.365Z,98308.03
2019-02-26T02:58:58.597Z,98311.92
2019-02-26T03:00:09.119Z,98310.23
2019-02-26T03:01:20.384Z,98307.22
2019-02-26T03:02:30.640Z,98307.66
2019-02-26T03:03:39.861Z,98306.81
2019-02-26T03:04:47.997Z,98307.25
2019-02-26T03:05:58.231Z,98307.73
2019-02-26T03:07:06.358Z,98304.28
2019-02-26T03:08:16.342Z,98300.02
2019-02-26T03:09:25.124Z,98310.30
2019-02-26T03:10:34.574Z,98308.20
2019-02-26T03:11:46.427Z,98312.91
2019-02-26T03:12:57.643Z,98311.22
2019-02-26T03:14:08.299Z,98310.00
2019-02-26T03:15:16.265Z,98307.43
2019-02-26T03:16:26.802Z,98305.33
2019-02-26T03:17:34.433Z,98306.62
2019-02-26T03:18:43.112Z,98298.02
2019-02-26T03:19:50.895Z,98307.02
2019-02-26T03:20:59.977Z,98306.58
2019-02-26T03:22:09.806Z,98301.37
2019-02-26T03:23:20.297Z,98310.78
2019-02-26T03:24:30.778Z,98302.66
2019-02-26T03:25:37.567Z,98306.98
2019-02-26T03:26:47.397Z,98296.70
2019-02-26T03:27:56.216Z,98291.14
2019-02-26T03:29:04.015Z,98295.41
2019-02-26T03:30:26.525Z,98292.43
2019-02-26T03:31:31.044Z,98294.19
2019-02-26T03:32:41.430Z,98292.94
2019-02-26T03:33:48.079Z,98288.27
2019-02-26T03:34:55.967Z,98287.86
2019-02-26T03:36:07.585Z,98284.89
2019-02-26T03:37:15.806Z,98283.16
2019-02-26T03:38:26.248Z,98280.19
2019-02-26T03:39:34.390Z,98281.91
2019-02-26T03:40:43.878Z,98283.20
2019-02-26T03:41:54.151Z,98280.63
2019-02-26T03:43:04.528Z,98281.06
2019-02-26T03:44:16.662Z,98287.94
2019-02-26T03:45:25.475Z,98288.81
2019-02-26T03:46:33.159Z,98288.45
2019-02-26T03:47:43.832Z,98295.31
2019-02-26T03:48:56.852Z,98288.88
2019-02-26T03:50:08.567Z,98290.17
2019-02-26T03:51:17.144Z,98290.20
2019-02-26T03:52:26.112Z,98285.94
2019-02-26T03:53:36.436Z,98291.09
2019-02-26T03:54:47.995Z,98290.23
2019-02-26T03:55:59.590Z,98287.27
2019-02-26T03:57:05.105Z,98290.27
2019-02-26T03:58:12.981Z,98287.30
2019-02-26T03:59:21.208Z,98281.74
2019-02-26T04:00:32.454Z,98283.44
2019-02-26T04:01:42.570Z,98285.13
2019-02-26T04:02:52.127Z,98283.03
2019-02-26T04:04:05.481Z,98277.92
2019-02-26T04:05:13.848Z,98277.08
2019-02-26T04:06:24.270Z,98277.52
2019-02-26T04:07:33.950Z,98273.69
2019-02-26T04:08:46.196Z,98268.98
2019-02-26T04:09:55.927Z,98264.69
2019-02-26T04:11:06.206Z,98267.27
2019-02-26T04:12:18.467Z,98263.03
2019-02-26T04:13:28.475Z,98260.45
2019-02-26T04:14:37.157Z,98265.60
2019-02-26T04:15:51.360Z,98257.04
2019-02-26T04:17:00.859Z,98255.75
2019-02-26T04:18:08.314Z,98247.23
2019-02-26T04:19:17.102Z,98250.24
2019-02-26T04:20:27.743Z,98252.41
2019-02-26T04:22:27.621Z,98252.81
2019-02-26T04:23:38.805Z,98252.41
2019-02-26T04:24:46.134Z,98255.48
2019-02-26T04:26:59.954Z,98258.13
2019-02-26T04:28:45.636Z,98258.56
2019-02-26T04:30:41.613Z,98255.37
2019-02-26T04:32:54.593Z,98253.31
2019-02-26T04:35:12.595Z,98248.83
2019-02-26T04:36:59.033Z,98257.58
2019-02-26T04:38:53.000Z,98258.61
2019-02-26T04:40:30.501Z,98258.67
2019-02-26T04:42:22.675Z,98253.59
2019-02-26T04:44:12.211Z,98254.38
2019-02-26T04:46:39.350Z,98254.72
2019-02-26T04:47:49.503Z,98254.31
2019-02-26T04:48:57.948Z,98246.83
2019-02-26T04:50:08.959Z,98247.14
2019-02-26T04:51:18.038Z,98250.02
2019-02-26T04:52:26.605Z,98249.45
2019-02-26T04:53:36.465Z,98254.97
2019-02-26T04:54:44.176Z,98250.63
2019-02-26T04:55:52.985Z,98257.45
2019-02-26T04:57:02.537Z,98261.69
2019-02-26T04:58:14.735Z,98259.05
2019-02-26T04:59:21.656Z,98253.91
2019-02-26T05:00:35.326Z,98248.77
2019-02-26T05:01:44.693Z,98253.88
2019-02-26T05:02:53.141Z,98248.77
2019-02-26T05:04:00.861Z,98254.38
2019-02-26T05:05:08.634Z,98259.55
2019-02-26T05:06:16.186Z,98257.83
2019-02-26T05:07:23.748Z,98258.27
2019-02-26T05:08:32.083Z,98264.66
2019-02-26T05:09:40.880Z,98264.66
2019-02-26T05:10:49.809Z,98259.05
2019-02-26T05:11:57.715Z,98261.62
2019-02-26T05:13:07.389Z,98263.81
2019-02-26T05:14:16.847Z,98256.95
2019-02-26T05:15:26.403Z,98256.10
2019-02-26T05:16:35.317Z,98252.69
2019-02-26T05:17:42.384Z,98250.12
2019-02-26T05:18:51.672Z,98256.10
2019-02-26T05:19:59.287Z,98249.70
2019-02-26T05:21:08.326Z,98251.44
2019-02-26T05:22:16.167Z,98249.74
2019-02-26T05:23:25.907Z,98247.61
2019-02-26T05:24:33.012Z,98252.31
2019-02-26T05:25:44.845Z,98246.33
2019-02-26T05:26:54.802Z,98252.31
2019-02-26T05:28:06.294Z,98253.19
2019-02-26T05:29:14.673Z,98246.36
2019-02-26T05:30:30.640Z,98250.25
2019-02-26T05:31:40.227Z,98245.58
2019-02-26T05:32:51.111Z,98250.75
2019-02-26T05:34:00.278Z,98246.05
2019-02-26T05:35:11.605Z,98244.35
2019-02-26T05:36:23.374Z,98245.27
2019-02-26T05:37:35.374Z,98249.49
2019-02-26T05:38:43.924Z,98246.92
2019-02-26T05:39:54.593Z,98244.41
2019-02-26T05:41:05.402Z,98251.69
2019-02-26T05:42:13.042Z,98246.14
2019-02-26T05:43:23.073Z,98252.56
2019-02-26T05:44:36.074Z,98252.56
2019-02-26T05:45:45.018Z,98248.30
2019-02-26T05:46:54.042Z,98254.72
2019-02-26T05:48:03.079Z,98255.13
2019-02-26T05:49:15.753Z,98254.28
2019-02-26T05:50:23.461Z,98257.30
2019-02-26T05:51:33.502Z,98256.86
2019-02-26T05:52:41.622Z,98257.30
2019-02-26T05:53:52.174Z,98253.44
2019-02-26T05:55:02.373Z,98261.12
2019-02-26T05:56:17.148Z,98260.70
2019-02-26T05:57:27.615Z,98265.41
2019-02-26T05:58:38.764Z,98269.30
2019-02-26T05:59:45.698Z,98267.16
2019-02-26T06:00:56.705Z,98268.04
2019-02-26T06:02:05.574Z,98269.77
2019-02-26T06:03:18.560Z,98267.63
2019-02-26T06:04:27.088Z,98266.31
2019-02-26T06:05:35.878Z,98265.06
2019-02-26T06:06:43.695Z,98270.20
2019-02-26T06:07:54.454Z,98270.64
2019-02-26T06:09:02.924Z,98268.07
2019-02-26T06:10:12.842Z,98263.37
2019-02-26T06:11:20.578Z,98265.13
2019-02-26T06:12:30.561Z,98268.51
2019-02-26T06:13:41.113Z,98274.05
2019-02-26T06:14:51.511Z,98269.77
2019-02-26T06:16:02.200Z,98272.33
2019-02-26T06:17:10.515Z,98272.33
2019-02-26T06:18:21.020Z,98268.07
2019-02-26T06:19:46.058Z,98265.13
2019-02-26T06:20:55.908Z,98262.14
2019-02-26T06:22:05.512Z,98273.83
2019-02-26T06:23:15.174Z,98266.59
2019-02-26T06:24:26.774Z,98272.16
2019-02-26T06:25:33.939Z,98272.16
2019-02-26T06:26:46.870Z,98273.45
2019-02-26T06:27:56.376Z,98267.88
2019-02-26T06:29:07.648Z,98272.61
2019-02-26T06:30:16.832Z,98274.30
2019-02-26T06:31:25.150Z,98275.61
2019-02-26T06:32:36.728Z,98272.16
2019-02-26T06:33:47.176Z,98275.98
2019-02-26T06:34:55.324Z,98278.15
2019-02-26T06:36:06.529Z,98277.27
2019-02-26T06:37:23.892Z,98278.15
2019-02-26T06:38:34.968Z,98279.88
2019-02-26T06:39:43.477Z,98280.75
2019-02-26T06:40:51.435Z,98276.05
2019-02-26T06:42:03.080Z,98278.61
2019-02-26T06:43:12.166Z,98274.33
2019-02-26T06:44:21.547Z,98281.62
2019-02-26T06:45:29.148Z,98275.20
2019-02-26T06:46:47.198Z,98279.93
2019-02-26T06:47:58.525Z,98271.34
2019-02-26T06:49:07.065Z,98271.41
2019-02-26T06:50:16.592Z,98271.44
2019-02-26T06:51:28.133Z,98274.00
2019-02-26T06:52:38.188Z,98272.25
2019-02-26T06:53:49.264Z,98272.23
2019-02-26T06:54:59.595Z,98269.22
2019-02-26T06:56:06.629Z,98272.63
2019-02-26T06:57:20.429Z,98275.61
2019-02-26T06:58:33.507Z,98270.03
2019-02-26T06:59:41.189Z,98273.04
2019-02-26T07:00:54.664Z,98267.91
2019-02-26T07:02:00.050Z,98275.14
2019-02-26T07:03:07.701Z,98273.86
2019-02-26T07:04:16.824Z,98275.11
2019-02-26T07:05:25.480Z,98279.37
2019-02-26T07:06:34.972Z,98281.94
2019-02-26T07:07:42.739Z,98289.15
2019-02-26T07:08:51.096Z,98282.32
2019-02-26T07:10:01.237Z,98292.53
2019-02-26T07:11:12.735Z,98291.25
2019-02-26T07:12:23.996Z,98289.53
2019-02-26T07:13:33.870Z,98291.63
2019-02-26T07:14:46.476Z,98293.82
2019-02-26T07:15:57.499Z,98297.67
2019-02-26T07:17:07.068Z,98295.98
2019-02-26T07:18:17.694Z,98296.42
2019-02-26T07:19:27.950Z,98293.85
2019-02-26T07:20:39.394Z,98294.26
2019-02-26T07:21:47.913Z,98296.83
2019-02-26T07:22:56.049Z,98295.08
2019-02-26T07:24:03.789Z,98292.51
2019-02-26T07:25:15.292Z,98294.61
2019-02-26T07:26:23.971Z,98290.73
2019-02-26T07:27:33.707Z,98292.86
2019-02-26T07:28:44.619Z,98289.88
2019-02-26T07:29:53.110Z,98291.60
2019-02-26T07:31:07.334Z,98292.04
2019-02-26T07:32:17.890Z,98286.49
2019-02-26T07:33:27.256Z,98287.78
2019-02-26T07:34:34.815Z,98288.19
2019-02-26T07:35:42.532Z,98289.47
2019-02-26T07:36:52.539Z,98286.84
2019-02-26T07:38:03.626Z,98284.27
2019-02-26T07:39:15.533Z,98284.27
2019-02-26T07:40:28.420Z,98278.28
2019-02-26T07:41:39.296Z,98280.45
2019-02-26T07:42:49.308Z,98278.34
2019-02-26T07:43:56.485Z,98284.80
2019-02-26T07:45:14.684Z,98278.41
2019-02-26T07:46:19.283Z,98277.56
2019-02-26T07:47:31.422Z,98276.75
2019-02-26T07:48:42.237Z,98275.95
2019-02-26T07:49:49.958Z,98276.42
2019-02-26T07:50:57.913Z,98271.29
2019-02-26T07:52:08.808Z,98272.98
2019-02-26T07:53:19.670Z,98267.00
2019-02-26T07:54:28.820Z,98273.39
2019-02-26T07:55:38.231Z,98269.95
2019-02-26T07:56:50.090Z,98269.88
2019-02-26T07:57:58.513Z,98272.02
2019-02-26T07:59:07.851Z,98273.70
2019-02-26T08:00:18.648Z,98270.23
2019-02-26T08:01:28.621Z,98271.05
2019-02-26T08:02:37.457Z,98279.13
2019-02-26T08:03:47.015Z,98273.96
2019-02-26T08:04:56.523Z,98271.30
2019-02-26T08:06:08.670Z,98266.57
2019-02-26T08:07:16.488Z,98265.66
2019-02-26T08:08:24.177Z,98269.02
2019-02-26T08:09:37.196Z,98271.52
2019-02-26T08:10:50.616Z,98268.83
2019-02-26T08:11:57.938Z,98268.77
2019-02-26T08:13:08.030Z,98268.70
2019-02-26T08:14:16.594Z,98271.58
2019-02-26T08:15:27.643Z,98276.66
2019-02-26T08:16:34.839Z,98279.13
2019-02-26T08:17:47.770Z,98278.66
2019-02-26T08:18:54.128Z,98283.23
2019-02-26T08:20:07.394Z,98284.89
2019-02-26T08:21:17.602Z,98284.42
2019-02-26T08:22:27.524Z,98281.38
2019-02-26T08:23:41.261Z,98282.56
2019-02-26T08:24:50.915Z,98280.36
2019-02-26T08:26:00.472Z,98279.92
2019-02-26T08:27:13.435Z,98283.34
2019-02-26T08:28:23.012Z,98279.81
2019-02-26T08:29:31.298Z,98289.19
2019-02-26T08:30:42.322Z,98288.65
2019-02-26T08:31:52.044Z,98287.70
2019-02-26T08:33:02.683Z,98290.10
2019-02-26T08:34:12.600Z,98283.12
2019-02-26T08:35:20.020Z,98285.59
2019-02-26T08:36:29.030Z,98280.27
2019-02-26T08:37:37.647Z,98283.55
2019-02-26T08:38:48.226Z,98284.25
2019-02-26T08:39:57.739Z,98286.27
2019-02-26T08:41:07.128Z,98285.31
2019-02-26T08:42:14.969Z,98283.48
2019-02-26T08:43:24.564Z,98279.55
2019-02-26T08:44:32.306Z,98278.95
2019-02-26T08:45:43.735Z,98278.40
2019-02-26T08:46:51.527Z,98276.15
2019-02-26T08:48:02.169Z,98280.34
2019-02-26T08:49:11.097Z,98272.91
2019-02-26T08:50:20.873Z,98277.53
2019-02-26T08:51:32.206Z,98272.70
2019-02-26T08:52:40.014Z,98274.25
2019-02-26T08:53:49.592Z,98275.02
2019-02-26T08:54:59.002Z,98279.20
2019-02-26T08:56:08.426Z,98280.33
2019-02-26T08:57:17.790Z,98279.77
2019-02-26T08:58:26.377Z,98277.95
2019-02-26T08:59:35.116Z,98283.80
2019-02-26T09:00:45.351Z,98277.67
2019-02-26T09:01:54.157Z,98285.20
2019-02-26T09:03:01.940Z,98280.81
2019-02-26T09:04:09.782Z,98275.08
2019-02-26T09:05:17.836Z,98278.79
2019-02-26T09:06:27.042Z,98277.81
2019-02-26T09:07:34.915Z,98275.98
2019-02-26T09:08:43.869Z,98273.69
2019-02-26T09:09:55.385Z,98277.83
2019-02-26T09:11:03.550Z,98272.91
2019-02-26T09:12:15.129Z,98274.06
2019-02-26T09:13:25.453Z,98270.05
2019-02-26T09:14:37.508Z,98267.70
2019-02-26T09:15:45.908Z,98267.97
2019-02-26T09:16:54.949Z,98266.46
2019-02-26T09:18:04.859Z,98262.50
2019-02-26T09:19:14.288Z,98256.26
2019-02-26T09:20:24.554Z,98263.83
2019-02-26T09:21:36.955Z,98261.55
2019-02-26T09:22:48.850Z,98258.42
2019-02-26T09:24:00.007Z,98256.52
2019-02-26T09:25:08.172Z,98265.00
2019-02-26T09:26:17.427Z,98259.70
2019-02-26T09:27:27.098Z,98263.39
2019-02-26T09:28:36.395Z,98258.92
2019-02-26T09:29:49.614Z,98261.41
2019-02-26T09:31:01.043Z,98263.76
2019-02-26T09:32:09.336Z,98259.29
2019-02-26T09:33:17.319Z,98260.74
2019-02-26T09:34:29.283Z,98253.23
2019-02-26T09:35:37.087Z,98260.70
2019-02-26T09:36:50.618Z,98261.34
2019-02-26T09:38:00.718Z,98264.47
2019-02-26T09:39:08.778Z,98269.38
2019-02-26T09:40:23.505Z,98269.56
2019-02-26T09:41:29.655Z,98269.27
2019-02-26T09:42:43.951Z,98271.64
2019-02-26T09:43:52.812Z,98273.92
2019-02-26T09:45:02.224Z,98276.29
2019-02-26T09:46:16.316Z,98273.84
2019-02-26T09:47:31.563Z,98271.88
2019-02-26T09:48:44.726Z,98272.58
2019-02-26T09:49:52.174Z,98275.00
2019-02-26T09:51:02.007Z,98273.15
2019-02-26T09:52:11.571Z,98276.77
2019-02-26T09:53:22.130Z,98271.81
2019-02-26T09:54:30.743Z,98275.05
2019-02-26T09:55:39.803Z,98272.73
2019-02-26T09:56:49.993Z,98278.95
2019-02-26T09:58:02.414Z,98272.30
2019-02-26T09:59:14.675Z,98280.34
2019-02-26T10:00:28.560Z,98282.36
2019-02-26T10:01:35.357Z,98274.84
2019-02-26T10:02:44.725Z,98279.00
2019-02-26T10:03:56.464Z,98278.73
2019-02-26T10:05:08.512Z,98275.91
2019-02-26T10:06:16.777Z,98275.76
2019-02-26T10:07:28.561Z,98278.07
2019-02-26T10:08:38.288Z,98276.53
2019-02-26T10:09:48.473Z,98278.01
2019-02-26T10:10:59.642Z,98274.33
2019-02-26T10:12:10.659Z,98279.69
2019-02-26T10:13:21.107Z,98280.28
2019-02-26T10:14:33.387Z,98279.16
2019-02-26T10:15:44.326Z,98280.20
2019-02-26T10:16:56.888Z,98276.58
2019-02-26T10:18:07.238Z,98276.35
2019-02-26T10:19:16.874Z,98278.75
2019-02-26T10:20:28.783Z,98278.41
2019-02-26T10:21:37.332Z,98277.23
2019-02-26T10:22:47.592Z,98277.41
2019-02-26T10:23:59.450Z,98270.27
2019-02-26T10:25:09.099Z,98271.27
2019-02-26T10:26:16.930Z,98271.45
2019-02-26T10:27:25.835Z,98268.50
2019-02-26T10:28:37.647Z,98266.45
2019-02-26T10:29:47.539Z,98270.36
2019-02-26T10:31:03.238Z,98269.98
2019-02-26T10:32:12.038Z,98279.57
2019-02-26T10:33:22.109Z,98270.17
2019-02-26T10:34:30.430Z,98263.41
2019-02-26T10:35:42.139Z,98265.63
2019-02-26T10:36:52.912Z,98268.68
2019-02-26T10:38:03.613Z,98270.47
2019-02-26T10:39:11.500Z,98272.22
2019-02-26T10:40:19.678Z,98267.05
2019-02-26T10:41:29.645Z,98272.63
2019-02-26T10:42:39.955Z,98271.70
2019-02-26T10:43:47.766Z,98268.20
2019-02-26T10:44:56.656Z,98272.19
2019-02-26T10:46:04.397Z,98271.78
2019-02-26T10:47:13.313Z,98270.92
2019-02-26T10:48:22.762Z,98261.44
2019-02-26T10:49:30.713Z,98263.63
2019-02-26T10:50:40.300Z,98268.45
2019-02-26T10:51:48.046Z,98266.73
2019-02-26T10:53:01.435Z,98267.16
2019-02-26T10:54:09.645Z,98268.52
2019-02-26T10:55:21.884Z,98268.56
2019-02-26T10:56:30.569Z,98269.55
2019-02-26T10:57:39.113Z,98271.42
2019-02-26T10:58:49.514Z,98268.96
2019-02-26T10:59:59.641Z,98260.80
2019-02-26T11:01:10.349Z,98265.64
2019-02-26T11:02:22.101Z,98259.99
2019-02-26T11:03:35.344Z,98259.20
2019-02-26T11:04:43.445Z,98260.06
2019-02-26T11:05:52.206Z,98269.61
2019-02-26T11:07:01.680Z,98264.97
2019-02-26T11:08:09.600Z,98267.23
2019-02-26T11:09:22.371Z,98262.50
2019-02-26T11:10:29.929Z,98264.31
2019-02-26T11:11:39.850Z,98253.98
2019-02-26T11:12:53.525Z,98258.19
2019-02-26T11:14:02.694Z,98260.38
2019-02-26T11:15:10.956Z,98259.53
2019-02-26T11:16:25.267Z,98262.20
2019-02-26T11:17:32.425Z,98263.80
2019-02-26T11:18:42.747Z,98257.27
2019-02-26T11:19:52.995Z,98261.97
2019-02-26T11:21:02.517Z,98257.48
2019-02-26T11:22:11.918Z,98260.00
2019-02-26T11:23:30.512Z,98259.55
2019-02-26T11:24:33.687Z,98256.55
2019-02-26T11:25:42.400Z,98260.86
2019-02-26T11:26:50.277Z,98259.06
2019-02-26T11:28:00.021Z,98254.66
2019-02-26T11:29:08.760Z,98249.81
2019-02-26T11:30:38.015Z,98249.83
2019-02-26T11:31:47.730Z,98247.21
2019-02-26T11:32:58.691Z,98250.63
2019-02-26T11:34:09.234Z,98251.72
2019-02-26T11:35:17.010Z,98249.00
2019-02-26T11:36:25.156Z,98247.37
2019-02-26T11:37:34.954Z,98249.38
2019-02-26T11:38:44.511Z,98244.38
2019-02-26T11:39:55.020Z,98242.83
2019-02-26T11:41:04.667Z,98238.36
2019-02-26T11:42:13.402Z,98234.75
2019-02-26T11:43:23.885Z,98239.35
2019-02-26T11:44:31.560Z,98232.69
2019-02-26T11:45:41.460Z,98232.05
2019-02-26T11:46:51.373Z,98228.80
2019-02-26T11:48:03.719Z,98222.08
2019-02-26T11:49:14.841Z,98223.52
2019-02-26T11:50:27.130Z,98224.75
2019-02-26T11:51:37.163Z,98217.29
2019-02-26T11:52:44.267Z,98221.20
2019-02-26T11:53:53.046Z,98218.03
2019-02-26T11:55:05.318Z,98215.36
2019-02-26T11:56:10.671Z,98216.58
2019-02-26T11:57:18.342Z,98213.54
2019-02-26T11:58:26.998Z,98218.22
2019-02-26T11:59:35.673Z,98216.95
2019-02-26T12:00:52.420Z,98212.56
2019-02-26T12:02:01.427Z,98212.50
2019-02-26T12:03:09.495Z,98215.61
2019-02-26T12:04:17.377Z,98208.73
2019-02-26T12:05:32.812Z,98210.41
2019-02-26T12:06:34.485Z,98214.48
2019-02-26T12:07:42.064Z,98213.72
2019-02-26T12:08:50.046Z,98208.48
2019-02-26T12:09:58.434Z,98205.42
2019-02-26T12:11:12.287Z,98204.00
2019-02-26T12:12:16.223Z,98211.31
2019-02-26T12:13:25.047Z,98205.12
2019-02-26T12:14:34.697Z,98210.87
2019-02-26T12:15:42.837Z,98206.34
2019-02-26T12:16:50.547Z,98210.63
2019-02-26T12:17:58.763Z,98210.06
2019-02-26T12:19:08.245Z,98202.55
2019-02-26T12:20:19.570Z,98209.48
2019-02-26T12:21:32.203Z,98202.59
2019-02-26T12:22:41.286Z,98203.80
2019-02-26T12:23:49.788Z,98205.36
2019-02-26T12:25:04.411Z,98203.45
2019-02-26T12:26:10.031Z,98200.57
2019-02-26T12:27:19.089Z,98202.97
2019-02-26T12:28:31.752Z,98201.06
2019-02-26T12:29:42.246Z,98197.01
2019-02-26T12:30:52.285Z,98194.27
2019-02-26T12:32:04.816Z,98192.21
2019-02-26T12:33:12.415Z,98185.77
2019-02-26T12:34:24.052Z,98189.95
2019-02-26T12:35:33.844Z,98190.56
2019-02-26T12:36:43.413Z,98189.70
2019-02-26T12:37:53.897Z,98187.67
2019-02-26T12:39:02.421Z,98183.70
2019-02-26T12:40:13.797Z,98183.71
2019-02-26T12:41:24.072Z,98185.86
2019-02-26T12:42:34.286Z,98182.84
2019-02-26T12:43:46.468Z,98176.31
2019-02-26T12:44:57.444Z,98185.36
2019-02-26T12:46:08.443Z,98177.83
2019-02-26T12:47:18.736Z,98173.85
2019-02-26T12:48:27.257Z,98173.13
2019-02-26T12:49:38.392Z,98172.89
2019-02-26T12:50:47.594Z,98168.06
2019-02-26T12:51:56.684Z,98167.58
2019-02-26T12:53:08.734Z,98162.63
2019-02-26T12:54:17.415Z,98164.77
2019-02-26T12:55:29.469Z,98163.77
2019-02-26T12:56:37.351Z,98165.42
2019-02-26T12:57:49.811Z,98161.78
2019-02-26T12:58:59.835Z,98162.03
2019-02-26T13:00:13.367Z,98157.20
2019-02-26T13:01:22.198Z,98151.91
2019-02-26T13:02:31.595Z,98149.09
2019-02-26T13:03:42.761Z,98149.30
2019-02-26T13:04:53.372Z,98141.83
2019-02-26T13:06:01.823Z,98143.24
2019-02-26T13:07:12.466Z,98144.02
2019-02-26T13:08:24.118Z,98138.02
2019-02-26T13:09:39.091Z,98137.98
2019-02-26T13:10:49.748Z,98139.10
2019-02-26T13:12:02.339Z,98133.93
2019-02-26T13:13:09.945Z,98132.22
2019-02-26T13:14:18.648Z,98134.47
2019-02-26T13:15:27.719Z,98130.96
2019-02-26T13:16:35.628Z,98126.10
2019-02-26T13:17:44.498Z,98128.21
2019-02-26T13:18:58.517Z,98118.43
2019-02-26T13:20:06.085Z,98118.39
2019-02-26T13:21:16.996Z,98116.16
2019-02-26T13:22:24.407Z,98115.27
2019-02-26T13:23:34.979Z,98115.36
2019-02-26T13:24:43.767Z,98107.02
2019-02-26T13:25:55.816Z,98105.44
2019-02-26T13:27:04.526Z,98099.89
2019-02-26T13:28:13.139Z,98098.30
2019-02-26T13:29:25.290Z,98100.16
2019-02-26T13:30:33.216Z,98099.09
2019-02-26T13:31:50.163Z,98098.47
2019-02-26T13:32:56.225Z,98096.88
2019-02-26T13:34:02.666Z,98099.73
2019-02-26T13:35:11.204Z,98095.34
2019-02-26T13:36:19.351Z,98097.56
2019-02-26T13:37:34.673Z,98098.95
2019-02-26T13:38:44.843Z,98093.24
2019-02-26T13:39:51.199Z,98096.23
2019-02-26T13:42:18.148Z,98088.66
2019-02-26T13:43:24.059Z,98089.28
2019-02-26T13:44:31.782Z,98094.08
2019-02-26T13:45:39.700Z,98088.53
2019-02-26T13:46:48.483Z,98088.39
2019-02-26T13:48:01.314Z,98085.61
2019-02-26T13:49:07.455Z,98088.44
2019-02-26T13:50:22.737Z,98085.31
2019-02-26T13:51:33.743Z,98078.92
2019-02-26T13:52:43.286Z,98086.84